Time;durP1;ratioP1;P1;durP2;ratioP2;P2;SDS_P1;SDS_P2;PMS_P1;PMS_P2;Temp;Humidity;BMP_temperature;BMP_pressure;BME280_temperature;BME280_humidity;BME280_pressure;Samples;Min_cycle;Max_cycle;Signal;HPM_P1;HPM_P2
2022/05/04 00:01:34;;;;;;;18.25;12.10;;;11.70;99.90;;;;;;5049735;28;20080;-55
2022/05/04 00:04:01;;;;;;;20.58;13.23;;;11.60;99.90;;;;;;5048724;28;20044;-51
2022/05/04 00:06:27;;;;;;;22.23;12.88;;;11.60;99.90;;;;;;5049131;28;20048;-53
2022/05/04 00:08:54;;;;;;;19.50;13.00;;;11.60;99.90;;;;;;5049417;28;20049;-55
2022/05/04 00:11:21;;;;;;;21.77;12.80;;;11.50;99.90;;;;;;5041560;28;20136;-53
2022/05/04 00:13:48;;;;;;;25.10;12.35;;;11.50;99.90;;;;;;5047586;28;20126;-53
2022/05/04 00:16:15;;;;;;;18.70;12.50;;;11.50;99.90;;;;;;5049158;28;20200;-53
2022/05/04 00:18:42;;;;;;;21.10;12.75;;;11.40;99.90;;;;;;5048557;28;20754;-57
2022/05/04 00:21:09;;;;;;;20.55;11.73;;;11.40;99.90;;;;;;5049077;28;20076;-55
2022/05/04 00:23:35;;;;;;;22.98;12.57;;;11.40;99.90;;;;;;5049260;28;20527;-55
2022/05/04 00:26:02;;;;;;;19.13;11.60;;;11.40;99.90;;;;;;5048020;28;20238;-56
2022/05/04 00:28:29;;;;;;;18.95;12.15;;;11.40;99.90;;;;;;5049476;28;20096;-55
2022/05/04 00:30:56;;;;;;;20.35;12.30;;;11.40;99.90;;;;;;5048955;28;20136;-54
2022/05/04 00:33:22;;;;;;;18.48;10.73;;;11.40;99.90;;;;;;5048670;28;20487;-53
2022/05/04 00:35:49;;;;;;;20.02;11.63;;;11.40;99.90;;;;;;5048545;28;20523;-56
2022/05/04 00:38:16;;;;;;;20.92;11.57;;;11.50;99.90;;;;;;5047902;28;20099;-54
2022/05/04 00:40:43;;;;;;;19.27;12.07;;;11.50;99.90;;;;;;5046710;28;20059;-56
2022/05/04 00:43:20;;;;;;;25.17;12.88;;;11.50;99.90;;;;;;5045485;28;20124;-55
2022/05/04 00:45:47;;;;;;;23.40;13.27;;;11.50;99.90;;;;;;5048531;28;20132;-56
2022/05/04 00:48:14;;;;;;;24.85;12.32;;;11.50;99.90;;;;;;5046184;28;20083;-56
2022/05/04 00:50:41;;;;;;;20.05;12.88;;;11.50;99.90;;;;;;5039006;28;20468;-54
2022/05/04 00:53:07;;;;;;;23.63;11.63;;;11.50;99.90;;;;;;5048023;28;20088;-54
2022/05/04 00:55:34;;;;;;;24.05;12.85;;;11.50;99.90;;;;;;5046302;28;20128;-56
2022/05/04 01:00:48;;;;;;;23.42;14.90;;;11.50;99.90;;;;;;5047382;28;20163;-54
2022/05/04 01:03:15;;;;;;;26.27;15.02;;;11.50;99.90;;;;;;5048532;28;20144;-57
2022/05/04 01:05:43;;;;;;;22.30;14.27;;;11.60;99.90;;;;;;5042651;28;20119;-60
2022/05/04 01:08:10;;;;;;;26.45;14.45;;;11.50;99.90;;;;;;5048058;28;20128;-55
2022/05/04 01:10:37;;;;;;;25.10;15.13;;;11.60;99.90;;;;;;5047080;28;20485;-55
2022/05/04 01:13:04;;;;;;;23.50;15.85;;;11.50;99.90;;;;;;5046669;28;20080;-55
2022/05/04 01:15:31;;;;;;;31.35;18.27;;;11.50;99.90;;;;;;5047403;28;20131;-53
2022/05/04 01:17:57;;;;;;;32.50;18.15;;;11.50;99.90;;;;;;5047642;28;20083;-54
2022/05/04 01:20:24;;;;;;;31.83;18.00;;;11.50;99.90;;;;;;5047890;28;20504;-57
2022/05/04 01:22:52;;;;;;;30.67;19.33;;;11.60;99.90;;;;;;5045728;28;20051;-55
2022/05/04 01:25:19;;;;;;;28.65;19.13;;;11.60;99.90;;;;;;5048123;28;20088;-56
2022/05/04 01:27:45;;;;;;;35.92;20.83;;;11.60;99.90;;;;;;5029030;28;20087;-57
2022/05/04 01:30:12;;;;;;;32.05;20.25;;;11.60;99.90;;;;;;5031353;28;20699;-55
2022/05/04 01:32:39;;;;;;;43.22;23.70;;;11.60;99.90;;;;;;5043037;28;20579;-55
2022/05/04 01:35:06;;;;;;;45.10;23.33;;;11.60;99.90;;;;;;5048133;28;20128;-55
2022/05/04 01:37:33;;;;;;;45.50;23.63;;;11.60;99.90;;;;;;5047042;28;20132;-58
2022/05/04 01:40:00;;;;;;;37.95;23.88;;;11.60;99.90;;;;;;5048100;28;20107;-55
2022/05/04 01:42:27;;;;;;;38.63;23.48;;;11.70;99.90;;;;;;5029436;28;20071;-56
2022/05/04 01:44:53;;;;;;;43.90;24.88;;;11.60;99.90;;;;;;5047421;28;20736;-54
2022/05/04 01:47:20;;;;;;;43.97;24.02;;;11.60;99.90;;;;;;5047355;28;20125;-54
2022/05/04 01:49:47;;;;;;;45.42;25.35;;;11.50;99.90;;;;;;5047527;28;20128;-56
2022/05/04 01:52:14;;;;;;;42.47;24.50;;;11.60;99.90;;;;;;5045567;28;20072;-54
2022/05/04 01:54:41;;;;;;;44.55;24.08;;;11.50;99.90;;;;;;5047534;28;20080;-56
2022/05/04 01:57:08;;;;;;;46.28;25.10;;;11.50;99.90;;;;;;5047245;28;20073;-57
2022/05/04 01:59:34;;;;;;;54.53;27.05;;;11.50;99.90;;;;;;5047850;28;20059;-55
2022/05/04 02:02:01;;;;;;;43.92;25.17;;;11.50;99.90;;;;;;5047361;28;20484;-55
2022/05/04 02:04:28;;;;;;;45.70;25.65;;;11.50;99.90;;;;;;5047265;28;20063;-56
2022/05/04 02:06:55;;;;;;;45.00;25.48;;;11.50;99.90;;;;;;5046752;28;20091;-55
2022/05/04 02:09:23;;;;;;;45.30;24.80;;;11.50;99.90;;;;;;5047328;28;20132;-56
2022/05/04 02:11:50;;;;;;;43.58;24.60;;;11.60;99.90;;;;;;5041077;28;20132;-55
2022/05/04 02:14:16;;;;;;;43.50;25.88;;;11.60;99.90;;;;;;5042475;28;20128;-57
2022/05/04 02:16:43;;;;;;;42.80;24.77;;;11.60;99.90;;;;;;5047179;28;20163;-56
2022/05/04 02:19:10;;;;;;;48.90;26.48;;;11.60;99.90;;;;;;5046137;28;20400;-54
2022/05/04 02:21:37;;;;;;;49.20;27.13;;;11.60;99.90;;;;;;5046228;28;20128;-55
2022/05/04 02:24:04;;;;;;;51.10;25.65;;;11.60;99.90;;;;;;5047121;28;20084;-56
2022/05/04 02:26:30;;;;;;;47.10;25.48;;;11.60;99.90;;;;;;5047495;28;20084;-54
2022/05/04 02:28:57;;;;;;;51.92;25.27;;;11.50;99.90;;;;;;5047185;28;20496;-54
2022/05/04 02:31:24;;;;;;;46.60;26.95;;;11.60;99.90;;;;;;5047506;28;20041;-54
2022/05/04 02:33:51;;;;;;;41.50;23.83;;;11.60;99.90;;;;;;5037996;28;20459;-54
2022/05/04 02:39:03;;;;;;;50.70;26.88;;;11.70;99.90;;;;;;5037859;28;20111;-57
2022/05/04 02:41:30;;;;;;;46.22;27.20;;;11.70;99.90;;;;;;5043594;28;20129;-54
2022/05/04 02:43:57;;;;;;;48.85;25.95;;;11.70;99.90;;;;;;5032797;28;20111;-55
2022/05/04 02:46:27;;;;;;;46.53;25.73;;;11.60;99.90;;;;;;5036346;28;20048;-56
2022/05/04 02:48:53;;;;;;;50.58;25.38;;;11.60;99.90;;;;;;5045292;28;20073;-56
2022/05/04 02:51:20;;;;;;;44.15;23.77;;;11.60;99.90;;;;;;5047512;28;20049;-55
2022/05/04 02:53:47;;;;;;;40.97;23.77;;;11.60;99.90;;;;;;5046921;28;20128;-53
2022/05/04 02:56:15;;;;;;;43.88;23.05;;;11.60;99.90;;;;;;5047155;28;20132;-54
2022/05/04 02:58:42;;;;;;;39.90;23.98;;;11.60;99.90;;;;;;5046772;28;20328;-54
2022/05/04 03:02:26;;;;;;;36.83;22.52;;;11.60;99.90;;;;;;5046039;28;20095;-56
2022/05/04 03:04:02;;;;;;;46.78;23.23;;;11.60;99.90;;;;;;5047117;28;20476;-57
2022/05/04 03:06:29;;;;;;;35.70;21.35;;;11.70;99.90;;;;;;5046062;28;20136;-56
2022/05/04 03:08:56;;;;;;;39.00;21.98;;;11.80;99.90;;;;;;5031738;28;20497;-56
2022/05/04 03:14:08;;;;;;;38.50;22.85;;;11.70;99.90;;;;;;5046326;28;20193;-53
2022/05/04 03:16:35;;;;;;;38.17;21.58;;;11.70;99.90;;;;;;5045159;28;20136;-54
2022/05/04 03:19:03;;;;;;;36.00;23.13;;;11.70;99.90;;;;;;5045624;28;20045;-55
2022/05/04 03:21:29;;;;;;;38.45;22.00;;;11.70;99.90;;;;;;5046182;28;20198;-55
2022/05/04 03:23:56;;;;;;;37.70;21.92;;;11.70;99.90;;;;;;5045478;28;20575;-56
2022/05/04 03:26:26;;;;;;;41.05;22.05;;;11.70;99.90;;;;;;5046815;28;20563;-54
2022/05/04 03:28:53;;;;;;;34.67;21.10;;;11.70;99.90;;;;;;5047017;28;20053;-55
2022/05/04 03:31:20;;;;;;;37.15;20.95;;;11.70;99.90;;;;;;5046800;28;20084;-54
2022/05/04 03:33:47;;;;;;;34.63;21.55;;;11.80;99.90;;;;;;5049875;28;20110;-55
2022/05/04 03:36:13;;;;;;;32.60;20.90;;;11.80;99.90;;;;;;5050333;28;20083;-54
2022/05/04 03:38:40;;;;;;;35.13;22.20;;;11.70;99.90;;;;;;5047620;28;20049;-55
2022/05/04 03:41:07;;;;;;;31.67;20.38;;;11.70;99.90;;;;;;5047252;28;20059;-53
2022/05/04 03:43:34;;;;;;;30.05;18.35;;;11.70;99.90;;;;;;5043619;28;20135;-57
2022/05/04 03:46:15;;;;;;;36.97;20.63;;;11.70;99.90;;;;;;5050236;28;20381;-55
2022/05/04 03:48:43;;;;;;;35.55;19.38;;;11.70;99.90;;;;;;5039319;28;20041;-58
2022/05/04 03:51:10;;;;;;;28.13;17.35;;;11.70;99.90;;;;;;5050081;28;20415;-56
2022/05/04 03:53:37;;;;;;;34.97;19.10;;;11.70;99.90;;;;;;5047327;28;20128;-55
2022/05/04 03:56:04;;;;;;;32.15;19.08;;;11.60;99.90;;;;;;5049788;28;20041;-55
2022/05/04 03:58:31;;;;;;;35.00;20.05;;;11.60;99.90;;;;;;5050016;28;20513;-53
2022/05/04 04:00:58;;;;;;;35.60;19.55;;;11.60;99.90;;;;;;5048968;28;20081;-52
2022/05/04 04:03:25;;;;;;;31.98;19.23;;;11.60;99.90;;;;;;5043245;28;20123;-50
2022/05/04 04:05:52;;;;;;;31.27;20.30;;;11.60;99.90;;;;;;5029869;28;20693;-52
2022/05/04 04:08:18;;;;;;;26.98;18.10;;;11.60;99.90;;;;;;5046724;28;20120;-55
2022/05/04 04:10:45;;;;;;;45.15;22.52;;;11.60;99.90;;;;;;5049401;28;20137;-56
2022/05/04 04:13:12;;;;;;;32.90;21.10;;;11.60;99.90;;;;;;5049077;28;20048;-56
2022/05/04 04:15:39;;;;;;;39.35;20.63;;;11.60;99.90;;;;;;5049286;28;20156;-53
2022/05/04 04:18:05;;;;;;;32.10;19.50;;;11.70;99.90;;;;;;5048805;28;20480;-57
2022/05/04 04:23:18;;;;;;;34.90;20.33;;;11.70;99.90;;;;;;5047779;28;20506;-56
2022/05/04 04:25:44;;;;;;;33.25;20.92;;;11.70;99.90;;;;;;5048749;28;20049;-53
2022/05/04 04:28:11;;;;;;;31.30;19.38;;;11.70;99.90;;;;;;5048470;28;20051;-56
2022/05/04 04:30:38;;;;;;;32.85;19.80;;;11.70;99.90;;;;;;5048451;28;20049;-57
2022/05/04 04:33:08;;;;;;;32.95;20.23;;;11.70;99.90;;;;;;5045791;28;20132;-56
2022/05/04 04:35:35;;;;;;;32.83;20.73;;;11.70;99.90;;;;;;5043480;28;20080;-55
2022/05/04 04:38:02;;;;;;;32.80;20.88;;;11.60;99.90;;;;;;5046461;28;20079;-56
2022/05/04 04:40:28;;;;;;;30.45;20.40;;;11.50;99.90;;;;;;5048846;28;20132;-55
2022/05/04 04:42:55;;;;;;;30.30;20.33;;;11.50;99.90;;;;;;5042855;28;20076;-56
2022/05/04 04:45:22;;;;;;;34.30;22.95;;;11.40;99.90;;;;;;5048408;28;20136;-51
2022/05/04 04:47:49;;;;;;;36.58;21.35;;;11.50;99.90;;;;;;5048762;28;20083;-55
2022/05/04 04:50:15;;;;;;;34.83;22.75;;;11.40;99.90;;;;;;5045513;28;20136;-55
2022/05/04 04:52:42;;;;;;;32.45;22.52;;;11.40;99.90;;;;;;5048823;28;20481;-55
2022/05/04 04:55:09;;;;;;;35.97;21.27;;;11.40;99.90;;;;;;5048390;28;20615;-55
2022/05/04 04:57:36;;;;;;;39.30;22.98;;;11.40;99.90;;;;;;5048451;28;20128;-56
2022/05/04 05:00:04;;;;;;;41.35;23.58;;;11.30;99.90;;;;;;5048391;28;20045;-56
2022/05/04 05:02:31;;;;;;;40.83;22.83;;;11.30;99.90;;;;;;5048836;28;20144;-55
2022/05/04 05:04:58;;;;;;;37.65;23.38;;;11.30;99.90;;;;;;5048289;28;20049;-55
2022/05/04 05:07:25;;;;;;;40.15;22.55;;;11.20;99.90;;;;;;5047307;28;20055;-55
2022/05/04 05:09:51;;;;;;;35.80;20.98;;;11.20;99.90;;;;;;5047616;28;20132;-54
2022/05/04 05:12:21;;;;;;;34.03;21.77;;;11.20;99.90;;;;;;5045727;28;20095;-56
2022/05/04 05:17:38;;;;;;;44.20;23.75;;;11.20;99.90;;;;;;5037215;28;20041;-56
2022/05/04 05:20:06;;;;;;;47.92;23.48;;;11.30;99.90;;;;;;5047287;28;20590;-56
2022/05/04 05:22:33;;;;;;;39.70;21.92;;;11.30;99.90;;;;;;5047678;28;20107;-56
2022/05/04 05:24:59;;;;;;;36.92;22.05;;;11.40;99.90;;;;;;5046865;28;20052;-56
2022/05/04 05:27:29;;;;;;;36.97;22.58;;;11.30;99.90;;;;;;5048018;28;20124;-54
2022/05/04 05:29:56;;;;;;;35.10;22.38;;;11.40;99.90;;;;;;5048123;28;20136;-55
2022/05/04 05:32:23;;;;;;;42.60;24.10;;;11.40;99.90;;;;;;5047157;28;20049;-56
2022/05/04 05:34:50;;;;;;;35.83;22.25;;;11.40;99.90;;;;;;5046123;28;20044;-58
2022/05/04 05:37:20;;;;;;;38.58;20.95;;;11.50;99.90;;;;;;5046575;28;20072;-54
2022/05/04 05:39:47;;;;;;;34.60;23.13;;;11.50;99.90;;;;;;5042914;28;20041;-54
2022/05/04 05:42:15;;;;;;;37.17;22.55;;;11.50;99.90;;;;;;5045881;28;20045;-55
2022/05/04 05:44:41;;;;;;;40.75;23.45;;;11.50;99.90;;;;;;5047534;28;20080;-56
2022/05/04 05:47:08;;;;;;;39.40;23.15;;;11.50;99.90;;;;;;5047811;28;20129;-56
2022/05/04 05:49:35;;;;;;;45.67;22.98;;;11.60;99.90;;;;;;5047273;28;20080;-55
2022/05/04 05:52:02;;;;;;;43.58;24.85;;;11.60;99.90;;;;;;5044135;28;20504;-54
2022/05/04 05:54:31;;;;;;;37.80;24.35;;;11.60;99.90;;;;;;5031575;28;20080;-55
2022/05/04 05:56:58;;;;;;;39.00;24.27;;;11.60;99.90;;;;;;5046274;28;20541;-55
2022/05/04 05:59:25;;;;;;;36.10;23.73;;;11.70;99.90;;;;;;5047746;28;20084;-51
2022/05/04 06:01:51;;;;;;;34.15;21.15;;;11.70;99.90;;;;;;5047211;28;20064;-56
2022/05/04 06:04:18;;;;;;;43.95;23.70;;;11.70;99.90;;;;;;5047246;28;20513;-57
2022/05/04 06:06:46;;;;;;;38.00;23.13;;;11.80;99.90;;;;;;5047678;28;20136;-56
2022/05/04 06:09:13;;;;;;;47.38;26.08;;;11.80;99.90;;;;;;5038112;28;20088;-56
2022/05/04 06:11:39;;;;;;;41.78;24.52;;;11.80;99.90;;;;;;5040032;28;20140;-55
2022/05/04 06:14:06;;;;;;;36.80;22.80;;;11.80;99.90;;;;;;5046585;28;20084;-55
2022/05/04 06:16:33;;;;;;;49.65;27.02;;;11.80;99.90;;;;;;5047384;28;20116;-55
2022/05/04 06:19:00;;;;;;;38.83;23.90;;;11.80;99.90;;;;;;5047140;28;20045;-54
2022/05/04 06:21:26;;;;;;;37.15;23.85;;;11.90;99.90;;;;;;5047286;28;20136;-52
2022/05/04 06:23:53;;;;;;;40.45;24.17;;;11.90;99.90;;;;;;5042496;28;20140;-57
2022/05/04 06:26:20;;;;;;;41.80;24.80;;;11.80;99.90;;;;;;5046751;28;20567;-53
2022/05/04 06:28:47;;;;;;;45.15;25.88;;;11.90;99.90;;;;;;5034954;28;20049;-53
2022/05/04 06:34:10;;;;;;;41.70;24.02;;;12.00;99.90;;;;;;5036370;28;20045;-59
2022/05/04 06:36:39;;;;;;;46.45;24.88;;;12.00;99.90;;;;;;5040893;28;20081;-52
2022/05/04 06:39:07;;;;;;;39.38;25.30;;;12.00;99.90;;;;;;5040625;28;20115;-56
2022/05/04 06:41:35;;;;;;;48.50;26.25;;;12.10;99.90;;;;;;5041260;28;20144;-57
2022/05/04 06:44:03;;;;;;;45.42;25.77;;;12.10;99.90;;;;;;5041513;28;20136;-55
2022/05/04 06:46:30;;;;;;;49.13;26.17;;;12.10;99.90;;;;;;5043720;28;20124;-56
2022/05/04 06:48:57;;;;;;;38.88;25.63;;;12.20;99.90;;;;;;5042419;28;20053;-57
2022/05/04 06:51:24;;;;;;;38.97;24.45;;;12.20;99.90;;;;;;5043945;28;20048;-54
2022/05/04 06:53:51;;;;;;;39.80;24.92;;;12.30;99.90;;;;;;5043406;28;20052;-59
2022/05/04 06:56:37;;;;;;;39.80;25.42;;;12.30;99.90;;;;;;5040018;28;20041;-55
2022/05/04 06:59:04;;;;;;;41.15;25.70;;;12.40;99.90;;;;;;5042193;28;20069;-57
2022/05/04 07:01:31;;;;;;;42.88;26.55;;;12.40;99.90;;;;;;5042771;28;20444;-57
2022/05/04 07:03:58;;;;;;;47.85;27.40;;;12.40;99.90;;;;;;5039095;28;20049;-55
2022/05/04 07:06:25;;;;;;;44.30;26.60;;;12.50;99.90;;;;;;5042523;28;20071;-56
2022/05/04 07:08:52;;;;;;;42.90;27.23;;;12.60;99.90;;;;;;5046218;28;20111;-56
2022/05/04 07:11:18;;;;;;;41.92;27.73;;;12.60;99.90;;;;;;5048571;28;20122;-56
2022/05/04 07:13:45;;;;;;;46.28;28.50;;;12.60;99.90;;;;;;5049814;28;20045;-60
2022/05/04 07:16:12;;;;;;;43.72;27.45;;;12.60;99.90;;;;;;5049020;28;20084;-56
2022/05/04 07:18:39;;;;;;;41.72;26.63;;;12.60;99.90;;;;;;5045399;28;20072;-59
2022/05/04 07:21:06;;;;;;;43.33;28.15;;;12.60;99.90;;;;;;5049062;28;20053;-55
2022/05/04 07:23:33;;;;;;;46.88;27.80;;;12.60;99.90;;;;;;5049157;28;20040;-56
2022/05/04 07:26:00;;;;;;;47.10;28.77;;;12.70;99.90;;;;;;5048683;28;20044;-56
2022/05/04 07:28:27;;;;;;;47.78;28.58;;;12.70;99.90;;;;;;5048962;28;20080;-54
2022/05/04 07:30:54;;;;;;;49.80;27.73;;;12.70;99.90;;;;;;5048736;28;20080;-57
2022/05/04 07:33:20;;;;;;;50.78;29.30;;;12.70;99.90;;;;;;5047345;28;20140;-57
2022/05/04 07:35:47;;;;;;;53.83;29.58;;;12.80;99.90;;;;;;5049573;28;20079;-58
2022/05/04 07:38:14;;;;;;;47.78;28.95;;;12.80;99.90;;;;;;5049628;28;20084;-54
2022/05/04 07:43:27;;;;;;;50.03;31.55;;;12.90;99.90;;;;;;5039101;28;20162;-56
2022/05/04 07:45:55;;;;;;;61.72;31.40;;;12.90;99.90;;;;;;5048138;28;20083;-56
2022/05/04 07:48:22;;;;;;;52.63;33.40;;;13.00;99.90;;;;;;5049975;28;20099;-54
2022/05/04 07:50:49;;;;;;;58.15;33.50;;;13.10;99.90;;;;;;5049556;28;20076;-58
2022/05/04 07:53:15;;;;;;;55.97;33.28;;;13.20;99.90;;;;;;5049588;28;20074;-60
2022/05/04 07:55:42;;;;;;;52.10;31.73;;;13.30;99.90;;;;;;5046630;28;20543;-59
2022/05/04 07:58:09;;;;;;;51.30;30.65;;;13.30;99.90;;;;;;5037633;28;20048;-53
2022/05/04 08:06:07;;;;;;;50.17;29.83;;;13.50;99.90;;;;;;5049099;28;20462;-54
2022/05/04 08:08:34;;;;;;;51.92;31.92;;;13.70;99.90;;;;;;5049193;28;20075;-57
2022/05/04 08:11:01;;;;;;;52.55;30.95;;;13.70;99.90;;;;;;5048547;28;20041;-57
2022/05/04 08:13:28;;;;;;;49.50;31.35;;;13.70;99.90;;;;;;5048749;28;20079;-54
2022/05/04 08:15:55;;;;;;;59.72;32.53;;;13.80;99.90;;;;;;5048794;28;20044;-55
2022/05/04 08:18:23;;;;;;;51.65;31.58;;;13.80;99.90;;;;;;5047277;28;20047;-56
2022/05/04 08:20:49;;;;;;;48.67;28.77;;;13.90;99.90;;;;;;5048424;28;20048;-55
2022/05/04 08:23:16;;;;;;;45.90;27.38;;;13.80;99.90;;;;;;5048975;28;20057;-58
2022/05/04 08:25:45;;;;;;;45.42;27.58;;;13.80;99.90;;;;;;5046371;28;20056;-56
2022/05/04 08:28:14;;;;;;;49.25;30.50;;;13.80;99.90;;;;;;5047946;28;20072;-56
2022/05/04 08:30:41;;;;;;;50.47;31.65;;;13.90;99.90;;;;;;5048543;28;20522;-55
2022/05/04 08:33:08;;;;;;;48.90;30.10;;;14.10;99.90;;;;;;5049241;28;20520;-56
2022/05/04 08:35:34;;;;;;;46.17;27.77;;;14.20;99.90;;;;;;5049239;28;20128;-56
2022/05/04 08:38:01;;;;;;;47.53;29.38;;;14.10;99.90;;;;;;5048995;28;20048;-64
2022/05/04 08:40:29;;;;;;;44.50;28.98;;;14.10;99.90;;;;;;5048688;28;20053;-57
2022/05/04 08:42:57;;;;;;;50.83;29.85;;;14.20;99.90;;;;;;5049036;28;20072;-56
2022/05/04 08:45:23;;;;;;;42.88;28.58;;;14.40;99.90;;;;;;5048467;28;20103;-57
2022/05/04 08:47:50;;;;;;;54.00;28.45;;;14.50;99.90;;;;;;5047694;28;20055;-56
2022/05/04 08:50:17;;;;;;;50.17;30.15;;;14.50;99.90;;;;;;5047725;28;20072;-57
2022/05/04 08:52:53;;;;;;;46.13;28.10;;;14.60;99.90;;;;;;5048448;28;20084;-57
2022/05/04 08:55:23;;;;;;;48.10;27.38;;;14.70;99.90;;;;;;5048545;28;20044;-56
2022/05/04 08:57:50;;;;;;;44.33;27.45;;;14.80;99.90;;;;;;5048500;28;20103;-56
2022/05/04 09:00:17;;;;;;;46.25;27.48;;;14.90;99.90;;;;;;5048942;28;20092;-57
2022/05/04 09:02:44;;;;;;;48.42;27.23;;;15.00;99.90;;;;;;5048343;28;20495;-59
2022/05/04 09:05:13;;;;;;;48.03;27.30;;;15.20;99.90;;;;;;5049090;28;20114;-56
2022/05/04 09:07:39;;;;;;;41.95;26.58;;;15.30;99.90;;;;;;5048414;28;20114;-56
2022/05/04 09:10:06;;;;;;;38.90;25.27;;;15.40;99.90;;;;;;5048769;28;20045;-56
2022/05/04 09:12:35;;;;;;;42.50;25.90;;;15.50;99.90;;;;;;5048331;28;20048;-55
2022/05/04 09:15:02;;;;;;;39.10;25.00;;;15.50;99.90;;;;;;5048618;28;20429;-55
2022/05/04 09:17:30;;;;;;;42.65;23.10;;;15.50;99.90;;;;;;5048074;28;20136;-57
2022/05/04 09:22:47;;;;;;;39.72;23.52;;;15.50;99.90;;;;;;5046724;28;20144;-56
2022/05/04 09:25:17;;;;;;;35.50;22.40;;;15.50;99.90;;;;;;5043774;28;20053;-56
2022/05/04 09:27:45;;;;;;;37.17;23.67;;;15.60;99.90;;;;;;5043974;28;20102;-56
2022/05/04 09:30:12;;;;;;;38.08;23.35;;;15.70;99.90;;;;;;5047780;28;20079;-57
2022/05/04 09:32:40;;;;;;;36.65;22.77;;;15.70;99.90;;;;;;5047771;28;20132;-55
2022/05/04 09:35:16;;;;;;;38.50;21.95;;;15.70;99.90;;;;;;5047881;28;20087;-53
2022/05/04 09:46:09;;;;;;;32.13;18.90;;;15.70;99.90;;;;;;5044216;28;20049;-60
2022/05/04 09:48:36;;;;;;;28.85;16.58;;;15.80;99.90;;;;;;5047801;28;20059;-57
2022/05/04 09:51:04;;;;;;;29.02;17.83;;;15.80;99.90;;;;;;5047346;28;20515;-55
2022/05/04 09:53:31;;;;;;;35.72;17.90;;;15.80;99.90;;;;;;5047127;28;20119;-57
2022/05/04 09:55:58;;;;;;;29.40;18.70;;;15.80;99.90;;;;;;5047249;28;20091;-56
2022/05/04 09:58:26;;;;;;;22.83;16.08;;;15.80;99.90;;;;;;5046244;28;20494;-57
2022/05/04 10:00:53;;;;;;;22.55;14.52;;;16.00;99.90;;;;;;5042406;28;20102;-56
2022/05/04 10:03:21;;;;;;;26.95;17.75;;;16.30;99.90;;;;;;5047340;28;20103;-57
2022/05/04 10:05:48;;;;;;;27.27;18.35;;;16.50;99.90;;;;;;5047712;28;20041;-57
2022/05/04 10:08:15;;;;;;;26.27;15.95;;;16.70;99.90;;;;;;5029350;28;20091;-57
2022/05/04 10:10:42;;;;;;;27.15;17.05;;;16.70;99.90;;;;;;5029567;28;20148;-56
2022/05/04 10:13:08;;;;;;;30.15;17.60;;;16.80;99.90;;;;;;5029468;28;20144;-57
2022/05/04 10:15:37;;;;;;;30.20;17.73;;;16.70;99.90;;;;;;5047001;28;20481;-56
2022/05/04 10:18:20;;;;;;;22.95;15.00;;;16.70;99.90;;;;;;5029975;28;20053;-57
2022/05/04 10:21:14;;;;;;;28.80;15.77;;;16.80;99.90;;;;;;5046982;28;20132;-57
2022/05/04 10:23:47;;;;;;;24.92;15.32;;;16.80;99.90;;;;;;5038817;28;20085;-56
2022/05/04 10:26:14;;;;;;;29.08;17.17;;;16.90;99.90;;;;;;5043427;28;20049;-57
2022/05/04 10:28:42;;;;;;;28.10;16.35;;;17.00;99.90;;;;;;5047661;28;20147;-57
2022/05/04 10:31:11;;;;;;;24.15;15.73;;;17.10;99.90;;;;;;5046831;28;20152;-58
2022/05/04 10:33:38;;;;;;;25.27;16.27;;;17.10;99.90;;;;;;5046210;28;20459;-56
2022/05/04 10:36:29;;;;;;;19.88;12.70;;;17.20;99.90;;;;;;5046642;28;20045;-57
2022/05/04 10:38:57;;;;;;;23.98;12.77;;;17.20;99.70;;;;;;5045014;28;20060;-56
2022/05/04 10:41:34;;;;;;;16.48;11.93;;;17.20;99.90;;;;;;5046687;28;20136;-57
2022/05/04 10:44:01;;;;;;;19.27;12.05;;;17.20;98.70;;;;;;5051412;28;20072;-56
2022/05/04 10:46:30;;;;;;;23.42;11.45;;;17.20;99.90;;;;;;5051355;28;20045;-57
2022/05/04 10:49:05;;;;;;;19.70;12.45;;;17.30;99.20;;;;;;5050058;28;20080;-56
2022/05/04 10:51:34;;;;;;;18.85;12.00;;;17.30;99.30;;;;;;5050763;28;20139;-56
2022/05/04 10:54:04;;;;;;;21.05;13.82;;;17.30;99.90;;;;;;5051201;28;20135;-57
2022/05/04 10:56:40;;;;;;;21.88;13.90;;;17.10;99.40;;;;;;5047002;28;20103;-57
2022/05/04 10:59:07;;;;;;;19.38;12.35;;;17.10;99.30;;;;;;5047514;28;20068;-56
2022/05/04 11:01:36;;;;;;;23.13;15.07;;;17.10;99.20;;;;;;5049333;28;20057;-56
2022/05/04 11:04:09;;;;;;;20.30;12.88;;;16.90;99.90;;;;;;5051097;28;20114;-55
2022/05/04 11:06:45;;;;;;;19.25;10.30;;;17.00;98.70;;;;;;5050837;28;20052;-57
2022/05/04 11:09:17;;;;;;;19.20;10.30;;;16.80;98.10;;;;;;5050430;28;20087;-56
2022/05/04 11:11:45;;;;;;;14.18;9.45;;;16.90;98.60;;;;;;5050119;28;20084;-56
2022/05/04 11:14:47;;;;;;;12.45;8.02;;;17.00;98.20;;;;;;5049630;28;20518;-57
2022/05/04 11:17:14;;;;;;;17.10;9.98;;;16.90;97.80;;;;;;5049230;28;20041;-56
2022/05/04 11:19:46;;;;;;;15.50;9.18;;;16.90;97.00;;;;;;5050500;28;20045;-60
2022/05/04 11:22:18;;;;;;;17.60;11.38;;;16.90;97.90;;;;;;5048015;28;20052;-58
2022/05/04 11:25:07;;;;;;;19.88;11.95;;;16.80;99.90;;;;;;5037854;28;20049;-56
2022/05/04 11:27:34;;;;;;;17.55;10.75;;;16.60;99.90;;;;;;5048639;28;20049;-57
2022/05/04 11:30:05;;;;;;;20.38;10.95;;;16.50;99.90;;;;;;5050391;28;20102;-57
2022/05/04 11:32:33;;;;;;;13.20;8.20;;;16.40;99.90;;;;;;5050011;28;20393;-55
2022/05/04 11:35:01;;;;;;;10.88;6.88;;;16.30;99.90;;;;;;5049796;28;20041;-56
2022/05/04 11:37:31;;;;;;;14.75;7.57;;;16.10;99.90;;;;;;5049723;28;20126;-54
2022/05/04 11:39:57;;;;;;;11.45;7.72;;;16.10;99.90;;;;;;5033450;28;20124;-58
2022/05/04 11:42:24;;;;;;;12.88;7.22;;;16.00;99.90;;;;;;5048573;28;20148;-55
2022/05/04 11:44:52;;;;;;;10.52;6.50;;;16.10;99.90;;;;;;5050011;28;20568;-53
2022/05/04 11:47:19;;;;;;;10.25;6.78;;;16.10;99.90;;;;;;5048790;28;20091;-53
2022/05/04 11:49:46;;;;;;;12.82;6.70;;;16.00;99.90;;;;;;5050273;28;20052;-57
2022/05/04 11:52:14;;;;;;;15.63;6.65;;;16.00;99.90;;;;;;5049637;28;20556;-57
2022/05/04 11:54:43;;;;;;;13.55;6.32;;;16.10;99.90;;;;;;5021533;28;20072;-58
2022/05/04 11:57:13;;;;;;;10.77;6.60;;;16.10;99.90;;;;;;5049563;28;20131;-56
2022/05/04 11:59:40;;;;;;;13.13;7.05;;;16.10;99.10;;;;;;5050063;28;20045;-57
2022/05/04 12:02:07;;;;;;;9.90;6.20;;;16.10;99.90;;;;;;5049879;28;20130;-58
2022/05/04 12:04:34;;;;;;;9.10;5.85;;;16.00;99.10;;;;;;5048759;28;20115;-57
2022/05/04 12:07:01;;;;;;;7.65;4.93;;;16.00;99.30;;;;;;5049474;28;20056;-58
2022/05/04 12:09:28;;;;;;;8.02;5.38;;;15.90;99.90;;;;;;5048598;28;20073;-57
2022/05/04 12:11:55;;;;;;;8.95;5.32;;;16.00;99.80;;;;;;4699076;28;10000147;-60
2022/05/04 12:14:22;;;;;;;9.18;5.40;;;16.00;99.70;;;;;;5044939;28;20077;-59
2022/05/04 12:16:49;;;;;;;8.85;4.75;;;16.10;99.70;;;;;;5046975;28;20080;-56
2022/05/04 12:19:18;;;;;;;7.10;4.20;;;16.10;98.80;;;;;;5043803;28;20071;-57
2022/05/04 12:21:45;;;;;;;7.75;4.68;;;16.10;98.70;;;;;;5043254;28;20682;-57
2022/05/04 12:24:13;;;;;;;10.65;6.55;;;16.00;98.90;;;;;;5046203;28;20084;-50
2022/05/04 12:26:41;;;;;;;10.50;5.72;;;16.10;99.30;;;;;;5029270;28;20067;-55
2022/05/04 12:34:42;;;;;;;12.27;6.53;;;16.40;99.20;;;;;;5044949;28;20052;-57
2022/05/04 12:37:08;;;;;;;10.82;6.63;;;16.30;98.60;;;;;;5045219;28;20051;-57
2022/05/04 12:39:35;;;;;;;10.82;6.28;;;16.30;99.10;;;;;;5023287;28;20128;-55
2022/05/04 12:42:03;;;;;;;10.30;5.82;;;16.30;99.30;;;;;;5040747;28;20606;-58
2022/05/04 12:44:32;;;;;;;8.90;6.45;;;16.40;99.90;;;;;;5045337;28;20098;-57
2022/05/04 12:47:01;;;;;;;11.60;7.80;;;16.40;98.80;;;;;;5045595;28;20131;-58
2022/05/04 12:49:28;;;;;;;9.77;6.10;;;16.40;99.10;;;;;;5044843;28;20056;-56
2022/05/04 12:51:56;;;;;;;13.27;6.65;;;16.50;99.60;;;;;;5044718;28;20107;-56
2022/05/04 12:54:23;;;;;;;11.13;6.35;;;16.50;99.20;;;;;;5045437;28;20052;-54
2022/05/04 12:56:51;;;;;;;7.97;5.43;;;16.50;99.20;;;;;;5042180;28;20092;-51
2022/05/04 12:59:21;;;;;;;11.38;6.60;;;16.50;98.50;;;;;;5045272;28;20928;-55
2022/05/04 13:01:48;;;;;;;10.15;5.97;;;16.50;99.40;;;;;;5046106;28;20490;-56
2022/05/04 13:04:17;;;;;;;11.50;5.72;;;16.60;99.50;;;;;;5044382;28;20064;-58
2022/05/04 13:06:45;;;;;;;12.52;5.70;;;16.80;99.40;;;;;;5045228;28;20040;-60
2022/05/04 13:09:12;;;;;;;9.40;5.30;;;17.10;98.70;;;;;;5043252;28;20148;-57
2022/05/04 13:11:39;;;;;;;6.40;4.50;;;17.20;97.80;;;;;;5043972;28;20056;-53
2022/05/04 13:14:06;;;;;;;6.63;4.65;;;17.40;98.40;;;;;;5041992;28;20088;-57